Alma, GA

7:21 AM EST on December 21, 2014 (GMT -0500)
Bacon County | Change Station
CLOSE
Current Station
Airport
Location: Alma,
Elevation: 200 ft
Nearby Weather Stations

Elev 200 ft 31.54 °N, 82.51 °W | Updated 28 minutes ago

Overcast
Overcast
51 °F
Feels Like 51 °F
N
6
Wind Variable Wind from NE

Today
High -- | Low -- °F
--% Chance of Precip.
Yesterday
High -- | Low -- °F
Precip. -- in
7:25 AM 5:31 PM
Waning Crescent, 0% visible
Pressure 30.15 in
Visibility 7.0 miles
Clouds Overcast 500 ft
Dew Point 50 °F
Humidity 96%
Rainfall 0.03 in
Snow Depth Not available.
UV 0 out of 12
Pollen .50 out of 12
Air Quality Not available.
Flu Activity Not available.
METAR KAMG 211153Z AUTO 04005KT 7SM OVC005 11/10 A3015 RMK AO2 SLP209 60003 70003 T01060100 10117 20106 52003 $

More Conditions Fewer Conditions

Pressure 30.15 in
Visibility 7.0 miles
Clouds Overcast 500 ft
Dew Point 50 °F
Humidity 96%
Rainfall 0.03 in
Snow Depth Not available.
UV 0 out of 12
Pollen .50 out of 12
Air Quality Not available.
Flu Activity Not available.
METAR KAMG 211153Z AUTO 04005KT 7SM OVC005 11/10 A3015 RMK AO2 SLP209 60003 70003 T01060100 10117 20106 52003 $

More Conditions Fewer Conditions

10-Day Weather Forecast

Almanac

Astronomy

Dec. 21, 2014 Rise Set
Actual Time
Civil Twilight
Nautical Twilight
Astronomical Twilight
Moon
Length of Visible Light
Length of Day
Tomorrow will be .
, % of the Moon is Illuminated

Today's Extremes

State Highs State Lows

Community

WunderPhotos

Upload Photos

1,779,372 photos uploaded!

WunderBlogs® & News

Nearby

Air Quality

  Air Quality AQ Index Pollutant
Not available.

Snow Depth

Station Depth Elevation

Earthquake Activity

City Distance Mag. Time & Date
Minimum magnitude displayed is 2.5.

Coastal Water Temperatures

Place Temperature

Nearby Weather Stations